Weather at Dyess Army Air Field

Public forecast

Using degrees Celsius for public forecast. Weather courtesy of forecast.io.

Closest aviation weather report (METAR) to Dyess Army Air Field

Closest report is Bucholz Army Air Field, 43.5 nm (80.5 km) SSE.

2024/07/19 05:00 (retrieved 12 minutes ago)

PKWA 190500Z COR 05010G17KT 10SM FEW017 SCT150 30/25 A2986 RMK AO2

Closest aviation forecast (TAF) to Dyess Army Air Field

Forecast is more than 12 hours old.

Closest forecast is Kluang Airport, 3,853.6 nm (7,136.9 km) W.

2024/07/18 06:00 (retrieved 23 hours ago)

TAF WMAP 180500Z 1806/1906 VRB03KT 9999 FEW018 TEMPO 1806/1808 5000 TSRA FEW017CB SCT018